Time;durP1;ratioP1;P1;durP2;ratioP2;P2;SDS_P1;SDS_P2;PMS_P1;PMS_P2;Temp;Humidity;BMP_temperature;BMP_pressure;BME280_temperature;BME280_humidity;BME280_pressure;Samples;Min_cycle;Max_cycle;Signal;HPM_P1;HPM_P2
2023/07/04 00:01:45;;;;;;;3.88;1.30;;;21.90;47.50;;;;;;5014003;28;20157;-70
2023/07/04 00:04:12;;;;;;;2.08;1.00;;;21.80;47.50;;;;;;5013858;28;20099;-71
2023/07/04 00:06:38;;;;;;;4.65;1.02;;;21.90;47.50;;;;;;5013822;28;20022;-70
2023/07/04 00:09:07;;;;;;;2.63;1.20;;;21.90;47.50;;;;;;5013902;28;20089;-72
2023/07/04 00:11:33;;;;;;;4.15;1.05;;;21.80;47.50;;;;;;5013712;28;20033;-71
2023/07/04 00:13:59;;;;;;;4.15;1.10;;;21.80;47.50;;;;;;5013668;28;20026;-72
2023/07/04 00:16:24;;;;;;;3.38;0.93;;;21.80;47.50;;;;;;5014322;28;20037;-78
2023/07/04 00:18:50;;;;;;;2.67;0.88;;;21.80;47.60;;;;;;5013544;28;20034;-77
2023/07/04 00:21:18;;;;;;;2.17;0.90;;;21.70;47.50;;;;;;5013597;28;20424;-77
2023/07/04 00:23:46;;;;;;;2.97;1.10;;;21.80;47.50;;;;;;5012193;28;20120;-77
2023/07/04 00:26:16;;;;;;;2.90;1.10;;;21.70;47.50;;;;;;5013091;28;20022;-77
2023/07/04 00:28:43;;;;;;;2.75;0.90;;;21.70;47.50;;;;;;5012935;28;20017;-70
2023/07/04 00:31:11;;;;;;;2.75;1.10;;;21.70;47.50;;;;;;5013177;28;20025;-70
2023/07/04 00:33:39;;;;;;;2.20;1.02;;;21.70;47.50;;;;;;5012022;28;20493;-71
2023/07/04 00:36:15;;;;;;;3.10;0.95;;;21.70;47.60;;;;;;5013094;28;20018;-70
2023/07/04 00:38:41;;;;;;;2.63;0.90;;;21.70;47.50;;;;;;5013265;28;20044;-70
2023/07/04 00:41:11;;;;;;;3.13;0.98;;;21.70;47.60;;;;;;5013000;28;20031;-70
2023/07/04 00:44:11;;;;;;;2.17;1.00;;;21.70;47.60;;;;;;5013002;28;20030;-71
2023/07/04 00:46:43;;;;;;;2.95;1.00;;;21.70;47.50;;;;;;5012941;28;20496;-70
2023/07/04 00:49:21;;;;;;;2.33;1.10;;;21.70;47.60;;;;;;5012866;28;20029;-70
2023/07/04 00:52:09;;;;;;;3.00;0.90;;;21.70;47.60;;;;;;5012860;28;20034;-70
2023/07/04 00:54:40;;;;;;;2.33;0.88;;;21.70;47.60;;;;;;4998747;28;20122;-71
2023/07/04 00:57:07;;;;;;;2.63;1.00;;;21.60;47.60;;;;;;5012772;28;20156;-70
2023/07/04 00:59:43;;;;;;;2.45;1.23;;;21.60;47.60;;;;;;5012745;28;20030;-70
2023/07/04 01:02:10;;;;;;;2.22;0.70;;;21.60;47.50;;;;;;5012596;28;20041;-70
2023/07/04 01:04:35;;;;;;;2.50;1.00;;;21.60;47.70;;;;;;5012548;28;20065;-70
2023/07/04 01:07:19;;;;;;;1.50;0.75;;;21.60;47.70;;;;;;5012676;28;20024;-70
2023/07/04 01:09:52;;;;;;;2.28;0.68;;;21.60;47.70;;;;;;5012539;28;20076;-71
2023/07/04 01:12:18;;;;;;;1.58;0.88;;;21.60;65.10;;;;;;5013128;28;20026;-70
2023/07/04 01:14:44;;;;;;;1.35;0.70;;;21.60;47.70;;;;;;5012457;28;20117;-70
2023/07/04 01:17:09;;;;;;;2.78;0.80;;;21.60;47.60;;;;;;5012342;28;20552;-70
2023/07/04 01:19:38;;;;;;;2.22;0.90;;;21.60;47.70;;;;;;5012448;28;20029;-70
2023/07/04 01:22:19;;;;;;;3.03;0.90;;;21.50;47.60;;;;;;5012361;28;20392;-70
2023/07/04 01:24:52;;;;;;;1.95;0.77;;;21.50;47.60;;;;;;5012320;28;20061;-76
2023/07/04 01:27:21;;;;;;;3.60;1.23;;;21.50;47.70;;;;;;5012337;28;20030;-76
2023/07/04 01:29:47;;;;;;;1.83;0.90;;;21.50;47.60;;;;;;5012495;28;20349;-76
2023/07/04 01:32:13;;;;;;;3.58;1.10;;;21.50;47.70;;;;;;5012211;28;20026;-76
2023/07/04 01:34:39;;;;;;;2.00;1.08;;;21.50;47.70;;;;;;5012211;28;20049;-76
2023/07/04 01:37:05;;;;;;;1.42;0.50;;;21.50;47.70;;;;;;5012218;28;20602;-77
2023/07/04 01:39:31;;;;;;;3.88;0.85;;;21.50;47.70;;;;;;5011872;28;20026;-76
2023/07/04 01:41:56;;;;;;;2.08;0.70;;;21.50;47.70;;;;;;5012546;28;20464;-77
2023/07/04 01:44:25;;;;;;;2.03;0.85;;;21.50;47.80;;;;;;5012289;28;20511;-77
2023/07/04 01:46:51;;;;;;;2.72;0.90;;;21.40;47.70;;;;;;5012110;28;20365;-77
2023/07/04 01:49:19;;;;;;;1.38;0.43;;;21.40;47.70;;;;;;5012189;28;20033;-76
2023/07/04 01:51:45;;;;;;;2.67;0.70;;;21.40;47.80;;;;;;5012151;28;20389;-77
2023/07/04 01:54:17;;;;;;;1.67;0.75;;;21.50;47.90;;;;;;5012130;28;20033;-76
2023/07/04 01:56:47;;;;;;;1.65;0.80;;;21.40;47.80;;;;;;5012370;28;20093;-77
2023/07/04 01:59:13;;;;;;;3.53;1.33;;;21.40;47.80;;;;;;5012066;28;20089;-77
2023/07/04 02:01:39;;;;;;;1.98;0.88;;;21.40;47.80;;;;;;5012269;28;20072;-76
2023/07/04 02:04:05;;;;;;;1.92;0.73;;;21.40;47.80;;;;;;5011623;28;20497;-76
2023/07/04 02:06:31;;;;;;;2.50;0.90;;;21.40;47.80;;;;;;5010672;28;20054;-76
2023/07/04 02:08:58;;;;;;;3.13;1.02;;;21.40;47.80;;;;;;5012147;28;20510;-76
2023/07/04 02:11:24;;;;;;;3.17;0.70;;;21.40;47.90;;;;;;5012449;28;20018;-77
2023/07/04 02:13:50;;;;;;;3.45;0.65;;;21.40;47.90;;;;;;5011975;28;20033;-77
2023/07/04 02:16:16;;;;;;;3.97;0.95;;;21.30;47.90;;;;;;5012179;28;20042;-76
2023/07/04 02:18:42;;;;;;;1.95;0.75;;;21.30;47.90;;;;;;5012084;28;20056;-77
2023/07/04 02:21:08;;;;;;;3.30;0.73;;;21.30;47.90;;;;;;5012508;28;20469;-71
2023/07/04 02:23:34;;;;;;;2.72;0.90;;;21.30;48.00;;;;;;5011632;28;20029;-71
2023/07/04 02:26:00;;;;;;;1.75;0.77;;;21.30;48.00;;;;;;5011584;28;20520;-71
2023/07/04 02:28:26;;;;;;;2.90;0.95;;;21.30;48.00;;;;;;5011851;28;20022;-71
2023/07/04 02:30:58;;;;;;;1.73;0.80;;;21.30;48.00;;;;;;5011540;28;20378;-71
2023/07/04 02:33:24;;;;;;;2.70;0.70;;;21.30;48.00;;;;;;5011751;28;20041;-71
2023/07/04 02:35:51;;;;;;;1.85;0.75;;;21.30;48.10;;;;;;5011807;28;20076;-71
2023/07/04 02:38:18;;;;;;;2.00;0.60;;;21.30;48.10;;;;;;5012031;28;20521;-77
2023/07/04 02:40:45;;;;;;;2.38;0.93;;;21.30;48.10;;;;;;5011909;28;20392;-76
2023/07/04 02:43:12;;;;;;;3.33;0.80;;;21.30;48.20;;;;;;5011673;28;20096;-76
2023/07/04 02:45:39;;;;;;;2.45;0.70;;;21.30;48.10;;;;;;5011765;28;20026;-77
2023/07/04 02:48:06;;;;;;;2.10;0.70;;;21.30;48.20;;;;;;5011672;28;20022;-78
2023/07/04 02:50:32;;;;;;;1.70;0.65;;;21.20;48.10;;;;;;5013317;28;20034;-76
2023/07/04 02:52:59;;;;;;;2.63;0.70;;;21.20;48.20;;;;;;5015623;28;20026;-77
2023/07/04 02:55:25;;;;;;;2.13;0.82;;;21.20;48.20;;;;;;5015685;28;20054;-76
2023/07/04 02:57:51;;;;;;;1.40;0.60;;;21.20;48.30;;;;;;5015412;28;20121;-77
2023/07/04 03:00:17;;;;;;;1.83;0.60;;;21.20;48.20;;;;;;5015672;28;20022;-77
2023/07/04 03:02:43;;;;;;;2.10;0.80;;;21.20;48.30;;;;;;5015637;28;20037;-77
2023/07/04 03:05:09;;;;;;;1.45;0.70;;;21.20;48.30;;;;;;5015311;28;20053;-77
2023/07/04 03:07:36;;;;;;;1.75;0.68;;;21.20;48.30;;;;;;5015758;28;20025;-71
2023/07/04 03:10:02;;;;;;;2.00;0.85;;;21.10;48.30;;;;;;5014876;28;20385;-71
2023/07/04 03:12:28;;;;;;;2.08;0.77;;;21.10;48.30;;;;;;5015135;28;20032;-70
2023/07/04 03:14:54;;;;;;;2.10;1.02;;;21.20;48.30;;;;;;5014618;28;20522;-70
2023/07/04 03:17:20;;;;;;;1.77;0.73;;;21.10;48.30;;;;;;5014816;28;20029;-70
2023/07/04 03:19:47;;;;;;;2.85;0.95;;;21.10;48.40;;;;;;5014883;28;20108;-77
2023/07/04 03:22:13;;;;;;;4.68;0.77;;;21.10;48.30;;;;;;5015141;28;20014;-76
2023/07/04 03:24:39;;;;;;;2.80;0.60;;;21.10;48.30;;;;;;5015462;28;20026;-77
2023/07/04 03:27:05;;;;;;;2.80;0.82;;;21.10;48.30;;;;;;5015374;28;20084;-77
2023/07/04 03:29:31;;;;;;;1.75;0.82;;;21.10;48.40;;;;;;5015346;28;20425;-77
2023/07/04 03:31:57;;;;;;;2.70;0.70;;;21.10;48.40;;;;;;5015322;28;20124;-77
2023/07/04 03:34:23;;;;;;;2.90;0.80;;;21.10;48.50;;;;;;5015334;28;20400;-77
2023/07/04 03:36:49;;;;;;;2.40;0.77;;;21.10;48.40;;;;;;5015070;28;20018;-77
2023/07/04 03:39:15;;;;;;;3.75;0.93;;;21.10;48.50;;;;;;5014357;28;20497;-77
2023/07/04 03:41:41;;;;;;;3.63;0.85;;;21.10;48.50;;;;;;5014634;28;20535;-77
2023/07/04 03:44:07;;;;;;;1.48;1.02;;;21.10;48.60;;;;;;5014420;28;20434;-78
2023/07/04 03:46:33;;;;;;;2.63;0.90;;;21.00;48.60;;;;;;5014454;28;20026;-77
2023/07/04 03:48:59;;;;;;;2.03;1.00;;;21.00;48.70;;;;;;5014494;28;20038;-77
2023/07/04 03:51:25;;;;;;;2.45;1.17;;;21.00;48.60;;;;;;5014029;28;20021;-77
2023/07/04 03:53:50;;;;;;;2.13;1.05;;;21.00;48.60;;;;;;5013910;28;20065;-77
2023/07/04 03:56:16;;;;;;;1.88;1.65;;;21.00;48.90;;;;;;5013952;28;20022;-76
2023/07/04 03:58:41;;;;;;;2.75;2.22;;;21.00;48.90;;;;;;5013876;28;20061;-77
2023/07/04 04:01:07;;;;;;;4.55;3.28;;;21.10;66.70;;;;;;5013688;28;20469;-77
2023/07/04 04:03:39;;;;;;;4.57;4.18;;;21.00;49.00;;;;;;5014367;28;20057;-70
2023/07/04 04:06:06;;;;;;;5.20;4.70;;;21.00;49.00;;;;;;5014149;28;20116;-71
2023/07/04 04:08:32;;;;;;;7.28;6.65;;;21.00;49.10;;;;;;5013718;28;20026;-71
2023/07/04 04:10:58;;;;;;;8.93;8.23;;;21.00;49.20;;;;;;5013666;28;20033;-71
2023/07/04 04:13:24;;;;;;;11.15;10.15;;;21.00;49.10;;;;;;5013723;28;20120;-71
2023/07/04 04:15:51;;;;;;;12.48;11.48;;;21.00;49.30;;;;;;5013666;28;20022;-77
2023/07/04 04:18:17;;;;;;;14.68;13.45;;;21.00;49.30;;;;;;5012326;28;20044;-76
2023/07/04 04:20:43;;;;;;;15.55;14.25;;;21.00;49.40;;;;;;5013580;28;20033;-76
2023/07/04 04:23:08;;;;;;;18.10;16.67;;;21.00;49.40;;;;;;5013532;28;20553;-77
2023/07/04 04:25:38;;;;;;;19.42;17.83;;;21.00;49.30;;;;;;5013397;28;20454;-77
2023/07/04 04:28:04;;;;;;;22.70;20.90;;;21.00;49.40;;;;;;5013280;28;20076;-76
2023/07/04 04:30:30;;;;;;;24.73;22.70;;;21.00;49.50;;;;;;5013186;28;20559;-76
2023/07/04 04:32:55;;;;;;;25.55;23.45;;;21.00;49.40;;;;;;5013661;28;20030;-77
2023/07/04 04:35:21;;;;;;;26.52;24.35;;;21.00;49.50;;;;;;5013144;28;20101;-77
2023/07/04 04:37:47;;;;;;;26.20;24.10;;;21.00;49.60;;;;;;5012985;28;20040;-77
2023/07/04 04:40:13;;;;;;;28.20;25.90;;;20.90;49.50;;;;;;5013095;28;20033;-77
2023/07/04 04:42:39;;;;;;;29.60;26.90;;;21.00;49.70;;;;;;5013169;28;20024;-77
2023/07/04 04:45:07;;;;;;;28.60;26.13;;;20.90;49.70;;;;;;5012981;28;20022;-76
2023/07/04 04:47:33;;;;;;;26.75;24.58;;;20.90;49.60;;;;;;5013125;28;20407;-76
2023/07/04 04:50:00;;;;;;;26.77;24.67;;;20.90;49.70;;;;;;5012966;28;20017;-77
2023/07/04 04:52:29;;;;;;;27.48;25.08;;;20.90;49.60;;;;;;5013042;28;20022;-77
2023/07/04 04:54:55;;;;;;;27.88;25.38;;;20.90;49.70;;;;;;5012851;28;20030;-77
2023/07/04 04:57:21;;;;;;;28.52;25.98;;;20.90;49.70;;;;;;5012750;28;20034;-76
2023/07/04 04:59:47;;;;;;;28.30;25.90;;;20.90;49.70;;;;;;5012932;28;20036;-78
2023/07/04 05:02:14;;;;;;;27.20;24.80;;;20.90;49.70;;;;;;5013360;28;20026;-71
2023/07/04 05:04:40;;;;;;;26.40;24.23;;;20.90;49.60;;;;;;5012335;28;20050;-71
2023/07/04 05:07:06;;;;;;;25.23;23.02;;;20.90;49.80;;;;;;5012499;28;20025;-71
2023/07/04 05:09:32;;;;;;;25.38;23.27;;;20.90;49.70;;;;;;5012826;28;20100;-71
2023/07/04 05:11:59;;;;;;;24.70;22.67;;;20.90;49.70;;;;;;5012777;28;20171;-71
2023/07/04 05:14:25;;;;;;;24.42;22.33;;;20.90;49.60;;;;;;5012172;28;20093;-71
2023/07/04 05:16:51;;;;;;;23.55;21.55;;;20.90;49.80;;;;;;5012515;28;20384;-71
2023/07/04 05:19:17;;;;;;;23.83;21.65;;;20.90;49.70;;;;;;5012252;28;20065;-71
2023/07/04 05:21:43;;;;;;;22.77;20.88;;;20.90;49.70;;;;;;5012248;28;20030;-71
2023/07/04 05:24:09;;;;;;;21.27;19.48;;;20.90;49.70;;;;;;5012201;28;20026;-72
2023/07/04 05:26:36;;;;;;;20.52;18.83;;;20.90;49.80;;;;;;5010960;28;20030;-73
2023/07/04 05:29:04;;;;;;;21.20;19.33;;;20.90;49.80;;;;;;5012614;28;20044;-79
2023/07/04 05:31:30;;;;;;;21.15;19.38;;;20.90;50.00;;;;;;5012231;28;20137;-78
2023/07/04 05:33:57;;;;;;;19.45;17.65;;;20.90;50.00;;;;;;5012172;28;20113;-78
2023/07/04 05:36:25;;;;;;;18.42;16.75;;;20.90;50.00;;;;;;5012230;28;20030;-81
2023/07/04 05:38:53;;;;;;;16.42;14.98;;;20.90;50.00;;;;;;5012062;28;20453;-80
2023/07/04 05:41:22;;;;;;;16.55;15.15;;;20.90;50.10;;;;;;5012469;28;20362;-74
2023/07/04 05:43:48;;;;;;;16.10;14.70;;;20.90;50.00;;;;;;5012008;28;20025;-72
2023/07/04 05:46:15;;;;;;;15.50;14.00;;;20.90;49.90;;;;;;5012018;28;20040;-72
2023/07/04 05:48:45;;;;;;;14.93;13.48;;;20.90;50.00;;;;;;5012066;28;20029;-72
2023/07/04 05:51:14;;;;;;;12.82;11.73;;;20.90;50.00;;;;;;5010663;28;20050;-73
2023/07/04 05:53:41;;;;;;;12.48;11.38;;;20.90;50.00;;;;;;5012064;28;20026;-71
2023/07/04 05:56:11;;;;;;;12.98;11.85;;;20.90;50.00;;;;;;5011587;28;20106;-69
2023/07/04 05:58:39;;;;;;;11.52;10.52;;;20.90;50.70;;;;;;5012183;28;20040;-74
2023/07/04 06:01:07;;;;;;;11.52;10.27;;;20.80;67.90;;;;;;5011537;28;20029;-75
2023/07/04 06:03:34;;;;;;;10.82;9.45;;;20.90;50.20;;;;;;5011604;28;20044;-75
2023/07/04 06:06:21;;;;;;;9.32;8.20;;;20.90;50.30;;;;;;5011693;28;20037;-77
2023/07/04 06:08:48;;;;;;;9.05;7.85;;;20.90;50.40;;;;;;5011121;28;20065;-71
2023/07/04 06:11:13;;;;;;;8.00;7.20;;;20.90;50.30;;;;;;5011886;28;20219;-74
2023/07/04 06:13:41;;;;;;;7.72;6.70;;;;;;;;;;5011682;28;20108;-84
2023/07/04 06:16:08;;;;;;;7.32;6.20;;;;;;;;;;5011796;28;20029;-80
2023/07/04 06:18:34;;;;;;;6.25;5.38;;;20.90;50.00;;;;;;5011460;28;20504;-77
2023/07/04 06:21:18;;;;;;;4.88;4.35;;;20.90;51.50;;;;;;5011824;28;20049;-79
2023/07/04 06:23:45;;;;;;;7.13;4.57;;;20.90;50.80;;;;;;5011926;28;20472;-79
2023/07/04 06:26:12;;;;;;;11.07;4.13;;;20.90;50.80;;;;;;5015381;28;20029;-79
2023/07/04 06:28:40;;;;;;;7.90;3.70;;;20.90;50.90;;;;;;5016131;28;20372;-76
2023/07/04 06:31:09;;;;;;;5.35;2.53;;;20.90;50.90;;;;;;5015869;28;20147;-77
2023/07/04 06:33:35;;;;;;;4.15;2.53;;;20.90;50.90;;;;;;5015651;28;20080;-77
2023/07/04 06:36:03;;;;;;;4.88;2.80;;;20.90;50.90;;;;;;5015656;28;20393;-77
2023/07/04 06:38:29;;;;;;;5.40;2.15;;;20.90;50.90;;;;;;5015423;28;20033;-77
2023/07/04 06:41:03;;;;;;;7.65;2.50;;;20.90;51.10;;;;;;5015893;28;20026;-77
2023/07/04 06:43:31;;;;;;;6.43;2.47;;;21.00;51.10;;;;;;5015775;28;20030;-77
2023/07/04 06:45:57;;;;;;;13.57;2.28;;;21.00;51.10;;;;;;5015263;28;20046;-77
2023/07/04 06:48:25;;;;;;;7.35;2.22;;;21.00;51.00;;;;;;5015514;28;20052;-77
2023/07/04 06:51:02;;;;;;;7.22;2.10;;;21.00;51.10;;;;;;5015557;28;20026;-77
2023/07/04 06:53:29;;;;;;;5.57;1.80;;;21.00;51.10;;;;;;5015182;28;20026;-77
2023/07/04 06:56:09;;;;;;;5.40;2.17;;;21.00;51.00;;;;;;5016212;28;20022;-77
2023/07/04 06:58:37;;;;;;;4.67;2.03;;;21.00;50.90;;;;;;5015243;28;20112;-77
2023/07/04 07:01:04;;;;;;;4.82;1.77;;;20.90;68.70;;;;;;5015186;28;20022;-76
2023/07/04 07:03:31;;;;;;;3.60;1.23;;;20.90;51.00;;;;;;5014829;28;20543;-76
2023/07/04 07:06:02;;;;;;;6.90;1.83;;;21.00;51.10;;;;;;5015372;28;20061;-77
2023/07/04 07:08:28;;;;;;;3.90;1.77;;;21.00;51.10;;;;;;5014930;28;20026;-76
2023/07/04 07:10:57;;;;;;;3.88;1.38;;;21.00;51.00;;;;;;5015093;28;20030;-77
2023/07/04 07:13:24;;;;;;;2.15;1.05;;;21.00;51.00;;;;;;5015025;28;20026;-77
2023/07/04 07:15:53;;;;;;;3.80;1.35;;;21.00;51.00;;;;;;5014949;28;20041;-77
2023/07/04 07:18:19;;;;;;;5.57;1.60;;;21.00;51.00;;;;;;5014878;28;20390;-78
2023/07/04 07:20:45;;;;;;;4.63;1.50;;;21.00;51.00;;;;;;5015365;28;20427;-78
2023/07/04 07:23:11;;;;;;;6.38;1.67;;;21.00;51.10;;;;;;5015387;28;20025;-71
2023/07/04 07:25:37;;;;;;;3.45;1.08;;;21.00;51.00;;;;;;5014538;28;20080;-69
2023/07/04 07:28:04;;;;;;;5.45;1.45;;;21.10;51.20;;;;;;5014439;28;20445;-70
2023/07/04 07:30:30;;;;;;;5.22;1.20;;;21.10;51.10;;;;;;5014352;28;20484;-70
2023/07/04 07:32:56;;;;;;;7.45;1.80;;;21.10;51.10;;;;;;5014614;28;20042;-69
2023/07/04 07:35:22;;;;;;;3.10;1.58;;;21.00;51.20;;;;;;5014323;28;20022;-69
2023/07/04 07:37:48;;;;;;;3.25;1.10;;;21.00;51.10;;;;;;5014022;28;20042;-70
2023/07/04 07:40:14;;;;;;;4.60;1.10;;;21.10;51.20;;;;;;5014234;28;20420;-70
2023/07/04 07:42:40;;;;;;;4.88;1.52;;;21.10;51.20;;;;;;5014213;28;20026;-70
2023/07/04 07:45:07;;;;;;;3.35;1.10;;;21.10;51.30;;;;;;5014429;28;20068;-69
2023/07/04 07:47:33;;;;;;;2.97;1.08;;;21.10;51.40;;;;;;5013966;28;20037;-69
2023/07/04 07:49:59;;;;;;;5.25;1.02;;;21.10;51.50;;;;;;5014539;28;20026;-70
2023/07/04 07:52:25;;;;;;;4.90;1.15;;;21.10;51.30;;;;;;5014875;28;20033;-70
2023/07/04 07:54:51;;;;;;;4.90;1.52;;;21.10;51.40;;;;;;5014030;28;20041;-70
2023/07/04 07:57:17;;;;;;;3.80;1.10;;;21.10;51.50;;;;;;5014116;28;20037;-70
2023/07/04 07:59:43;;;;;;;3.25;1.25;;;21.10;51.30;;;;;;5014119;28;20034;-70
2023/07/04 08:02:13;;;;;;;6.20;1.33;;;21.10;51.40;;;;;;5013789;28;20025;-71
2023/07/04 08:04:39;;;;;;;2.90;1.05;;;21.10;51.40;;;;;;5013758;28;20061;-77
2023/07/04 08:07:08;;;;;;;4.32;1.52;;;21.10;51.40;;;;;;5014081;28;20111;-76
2023/07/04 08:09:34;;;;;;;3.35;1.30;;;21.20;51.40;;;;;;5013778;28;20391;-77
2023/07/04 08:12:00;;;;;;;4.00;1.10;;;21.20;51.40;;;;;;5013755;28;20029;-77
2023/07/04 08:14:26;;;;;;;4.38;1.33;;;21.20;51.50;;;;;;5013679;28;20435;-77
2023/07/04 08:16:53;;;;;;;2.80;1.00;;;21.20;51.40;;;;;;5013952;28;20037;-77
2023/07/04 08:19:23;;;;;;;4.18;1.17;;;21.20;51.50;;;;;;5013674;28;20496;-78
2023/07/04 08:21:49;;;;;;;4.27;1.47;;;21.20;51.40;;;;;;5013876;28;20025;-70
2023/07/04 08:24:16;;;;;;;3.13;1.10;;;21.80;51.70;;;;;;5013498;28;20025;-72
2023/07/04 08:26:44;;;;;;;2.97;1.10;;;21.20;51.30;;;;;;5013455;28;20365;-69
2023/07/04 08:29:11;;;;;;;4.25;1.20;;;21.20;51.30;;;;;;5013294;28;20389;-69
2023/07/04 08:31:38;;;;;;;3.92;1.50;;;21.20;51.40;;;;;;5013490;28;20029;-70
2023/07/04 08:34:05;;;;;;;2.88;1.20;;;21.20;51.40;;;;;;5013221;28;20037;-70
2023/07/04 08:36:32;;;;;;;2.85;1.08;;;21.30;51.40;;;;;;5013097;28;20018;-69
2023/07/04 08:38:58;;;;;;;4.63;0.90;;;21.30;51.40;;;;;;5012948;28;20034;-69
2023/07/04 08:41:36;;;;;;;2.95;1.10;;;21.30;51.50;;;;;;5012812;28;20512;-69
2023/07/04 08:44:44;;;;;;;3.58;1.23;;;21.30;51.50;;;;;;5012894;28;20113;-69
2023/07/04 08:47:14;;;;;;;4.20;1.10;;;21.60;51.80;;;;;;4932465;29;20024;-70
2023/07/04 08:49:54;;;;;;;3.27;1.07;;;21.30;51.40;;;;;;4933597;29;20032;-77
2023/07/04 08:52:33;;;;;;;4.15;1.50;;;21.40;51.50;;;;;;4975385;28;20291;-76
2023/07/04 08:54:59;;;;;;;4.88;1.45;;;21.40;51.40;;;;;;5012959;28;20034;-76
2023/07/04 08:57:28;;;;;;;3.70;1.00;;;21.40;51.40;;;;;;5012798;28;20044;-77
2023/07/04 09:00:05;;;;;;;3.22;0.98;;;21.40;51.30;;;;;;5013055;28;20092;-70
2023/07/04 09:03:01;;;;;;;4.68;1.60;;;21.50;51.30;;;;;;5012916;28;20049;-70
2023/07/04 09:05:58;;;;;;;4.60;1.30;;;21.50;51.30;;;;;;5012435;28;20137;-69
2023/07/04 09:08:56;;;;;;;2.55;0.68;;;21.50;51.30;;;;;;5012746;28;20056;-69
2023/07/04 09:11:23;;;;;;;8.48;1.30;;;21.50;51.20;;;;;;5012460;28;20030;-69
2023/07/04 09:13:57;;;;;;;4.65;1.35;;;21.60;51.20;;;;;;5012303;28;20481;-71
2023/07/04 09:16:42;;;;;;;5.18;1.48;;;22.40;51.50;;;;;;5012565;28;20053;-69
2023/07/04 09:19:12;;;;;;;5.55;1.40;;;21.60;51.10;;;;;;5012513;28;20081;-69
2023/07/04 09:21:39;;;;;;;4.30;1.20;;;21.60;51.00;;;;;;5012344;28;20064;-69
2023/07/04 09:24:06;;;;;;;4.75;1.58;;;21.60;51.00;;;;;;5012465;28;20033;-70
2023/07/04 09:26:46;;;;;;;5.30;1.88;;;21.70;51.10;;;;;;5012551;28;20022;-70
2023/07/04 09:29:13;;;;;;;;;;;22.10;51.40;;;;;;5012818;28;20026;-69
2023/07/04 09:31:41;;;;;;;4.13;1.40;;;21.70;51.10;;;;;;5012497;28;19912;-69
2023/07/04 09:34:21;;;;;;;3.65;1.17;;;21.80;51.20;;;;;;5012162;28;20072;-69
2023/07/04 09:36:51;;;;;;;6.82;1.50;;;21.80;51.00;;;;;;5012829;28;20018;-70
2023/07/04 09:39:17;;;;;;;3.67;1.30;;;21.90;51.10;;;;;;5012090;28;20045;-70
2023/07/04 09:41:56;;;;;;;3.25;1.17;;;21.90;50.90;;;;;;5012040;28;20088;-69
2023/07/04 09:44:36;;;;;;;3.60;1.23;;;21.90;50.90;;;;;;5012343;28;20420;-70
2023/07/04 09:47:04;;;;;;;4.75;1.30;;;22.00;50.80;;;;;;5012806;28;20527;-78
2023/07/04 09:49:35;;;;;;;4.22;1.30;;;22.10;50.70;;;;;;5012122;28;20022;-78
2023/07/04 09:52:13;;;;;;;4.03;1.40;;;22.10;50.70;;;;;;5012343;28;20036;-78
2023/07/04 09:54:41;;;;;;;4.15;1.38;;;22.10;50.60;;;;;;5012112;28;20499;-78
2023/07/04 09:57:27;;;;;;;5.50;1.05;;;22.20;50.50;;;;;;5012042;28;20026;-77
2023/07/04 09:59:54;;;;;;;2.88;1.10;;;22.30;50.50;;;;;;5012014;28;20038;-77
2023/07/04 10:02:34;;;;;;;4.72;1.02;;;22.30;50.30;;;;;;5011715;28;20476;-77
2023/07/04 10:05:00;;;;;;;4.10;1.50;;;22.40;50.20;;;;;;5011985;28;20061;-77
2023/07/04 10:07:26;;;;;;;2.60;1.15;;;22.40;50.10;;;;;;5011773;28;20022;-78
2023/07/04 10:10:01;;;;;;;2.90;1.00;;;22.50;50.00;;;;;;5011922;28;20050;-78
2023/07/04 10:12:40;;;;;;;3.63;1.23;;;22.50;50.00;;;;;;5012006;28;20022;-78
2023/07/04 10:15:07;;;;;;;2.67;1.02;;;22.60;50.00;;;;;;5012435;28;20022;-71
2023/07/04 10:17:39;;;;;;;4.07;1.40;;;22.70;49.90;;;;;;5011809;28;20101;-71
2023/07/04 10:20:13;;;;;;;3.35;1.33;;;22.80;49.80;;;;;;5011961;28;20428;-70
2023/07/04 10:22:46;;;;;;;3.13;1.00;;;22.90;49.80;;;;;;5011526;28;20460;-70
2023/07/04 10:25:15;;;;;;;6.45;1.98;;;22.90;49.80;;;;;;5011796;28;20026;-76
2023/07/04 10:27:45;;;;;;;3.83;1.47;;;22.90;49.80;;;;;;5011862;28;20034;-69
2023/07/04 10:30:16;;;;;;;4.43;1.50;;;23.00;49.70;;;;;;5011594;28;20025;-70
2023/07/04 10:32:47;;;;;;;4.72;1.42;;;23.10;49.70;;;;;;5011493;28;20030;-70
2023/07/04 10:35:20;;;;;;;6.25;1.30;;;23.10;49.60;;;;;;5011798;28;20036;-70
2023/07/04 10:37:51;;;;;;;2.00;0.80;;;23.20;49.60;;;;;;5011617;28;20038;-70
2023/07/04 10:40:19;;;;;;;4.35;1.20;;;23.20;49.40;;;;;;5011666;28;20428;-70
2023/07/04 10:42:48;;;;;;;3.22;0.98;;;23.30;49.40;;;;;;5011791;28;20026;-76
2023/07/04 10:45:16;;;;;;;3.78;1.08;;;23.20;49.60;;;;;;5011603;28;20026;-77
2023/07/04 10:47:42;;;;;;;3.13;1.40;;;23.20;49.80;;;;;;5011457;28;20388;-77
2023/07/04 10:50:15;;;;;;;4.60;1.08;;;23.20;49.80;;;;;;5011422;28;20106;-78
2023/07/04 10:52:44;;;;;;;3.70;1.30;;;23.20;49.80;;;;;;5011517;28;20113;-77
2023/07/04 10:55:16;;;;;;;4.35;1.20;;;23.20;49.70;;;;;;5011332;28;20022;-71
2023/07/04 10:57:47;;;;;;;4.65;1.45;;;23.30;49.60;;;;;;5011266;28;20033;-71
2023/07/04 11:00:18;;;;;;;3.97;1.23;;;23.40;49.50;;;;;;5011275;28;20041;-71
2023/07/04 11:02:54;;;;;;;4.03;0.90;;;23.50;49.50;;;;;;5011206;28;20056;-71
2023/07/04 11:05:41;;;;;;;3.83;1.10;;;23.50;49.30;;;;;;5011420;28;20049;-71
2023/07/04 11:08:13;;;;;;;3.50;1.42;;;23.60;49.20;;;;;;5011453;28;20538;-71
2023/07/04 11:10:44;;;;;;;3.25;0.90;;;23.90;65.80;;;;;;5011494;28;20033;-77
2023/07/04 11:13:20;;;;;;;3.10;1.10;;;23.70;49.00;;;;;;5014944;28;20041;-78
2023/07/04 11:15:59;;;;;;;2.10;1.15;;;23.80;48.80;;;;;;5015134;28;20113;-78
2023/07/04 11:18:30;;;;;;;3.85;0.90;;;23.80;48.70;;;;;;5014937;28;20040;-76
2023/07/04 11:21:12;;;;;;;2.05;0.88;;;23.90;48.70;;;;;;5014720;28;20028;-77
2023/07/04 11:24:10;;;;;;;2.30;1.10;;;24.00;48.70;;;;;;5014846;28;20140;-77
2023/07/04 11:27:05;;;;;;;4.32;1.42;;;24.00;48.60;;;;;;5014786;28;20022;-77
2023/07/04 11:29:52;;;;;;;2.08;0.85;;;24.00;48.60;;;;;;5015216;28;20452;-78
2023/07/04 11:32:25;;;;;;;1.70;0.70;;;24.00;48.70;;;;;;5014481;28;20464;-77
2023/07/04 11:34:54;;;;;;;4.75;1.10;;;24.10;48.60;;;;;;5015129;28;20025;-77
2023/07/04 11:37:32;;;;;;;3.28;1.10;;;24.10;48.50;;;;;;5014703;28;20022;-76
2023/07/04 11:40:10;;;;;;;2.67;1.20;;;24.10;48.50;;;;;;5014961;28;20073;-77
2023/07/04 11:42:47;;;;;;;4.13;1.38;;;24.20;48.30;;;;;;5014410;28;20053;-78
2023/07/04 11:45:16;;;;;;;3.50;0.77;;;24.20;48.30;;;;;;5014688;28;20022;-77
2023/07/04 11:48:10;;;;;;;2.03;0.80;;;24.30;48.20;;;;;;5014305;28;20022;-76
2023/07/04 11:50:39;;;;;;;4.57;1.23;;;24.30;48.10;;;;;;5014517;28;20026;-77
2023/07/04 11:53:14;;;;;;;2.33;0.80;;;24.30;48.20;;;;;;5014445;28;20037;-70
2023/07/04 11:55:41;;;;;;;3.45;1.13;;;24.30;48.20;;;;;;5014116;28;20104;-69
2023/07/04 11:58:07;;;;;;;2.97;0.90;;;24.40;48.00;;;;;;5013877;28;20034;-70
2023/07/04 12:00:37;;;;;;;2.50;0.93;;;24.40;47.90;;;;;;5013936;28;20022;-70
2023/07/04 12:03:18;;;;;;;3.78;1.10;;;24.50;47.90;;;;;;5014117;28;20432;-72
2023/07/04 12:05:48;;;;;;;3.20;1.17;;;24.50;47.90;;;;;;5014086;28;20180;-70
2023/07/04 12:08:30;;;;;;;2.85;1.05;;;24.60;47.60;;;;;;5014726;28;20069;-76
2023/07/04 12:11:04;;;;;;;1.35;0.80;;;24.60;47.50;;;;;;5014243;28;20033;-77
2023/07/04 12:13:34;;;;;;;1.20;0.85;;;24.70;47.60;;;;;;5013975;28;20107;-76
2023/07/04 12:16:00;;;;;;;;;;;24.70;47.50;;;;;;5014294;28;20021;-76
2023/07/04 12:18:28;;;;;;;3.45;0.82;;;24.80;48.00;;;;;;5013826;28;20007;-77
2023/07/04 12:20:57;;;;;;;2.03;1.08;;;24.70;47.20;;;;;;5012893;28;20022;-78
2023/07/04 12:23:24;;;;;;;3.30;0.80;;;24.70;47.20;;;;;;5013500;28;20030;-78
2023/07/04 12:25:54;;;;;;;2.45;0.90;;;24.90;47.20;;;;;;5013755;28;20072;-77
2023/07/04 12:28:25;;;;;;;1.35;0.50;;;24.90;47.00;;;;;;5013593;28;20451;-77
2023/07/04 12:31:01;;;;;;;3.88;1.35;;;25.00;46.90;;;;;;5013239;28;20080;-77
2023/07/04 12:33:30;;;;;;;1.25;0.80;;;25.00;46.80;;;;;;5013474;28;20056;-76
2023/07/04 12:36:06;;;;;;;2.47;0.80;;;25.10;46.70;;;;;;5013602;28;20064;-77
2023/07/04 12:38:37;;;;;;;2.58;0.90;;;25.20;46.60;;;;;;5013707;28;20130;-71
2023/07/04 12:41:04;;;;;;;1.52;0.80;;;25.30;46.50;;;;;;5013077;28;20049;-71
2023/07/04 12:43:32;;;;;;;1.67;0.70;;;25.30;46.40;;;;;;5013287;28;20093;-70
2023/07/04 12:46:08;;;;;;;1.30;0.60;;;25.30;47.00;;;;;;5013076;28;20029;-70
2023/07/04 12:48:35;;;;;;;2.80;0.82;;;25.30;46.30;;;;;;5012917;28;20053;-70
2023/07/04 12:51:01;;;;;;;3.75;1.10;;;25.40;46.90;;;;;;5012912;28;20025;-70
2023/07/04 12:53:28;;;;;;;1.77;0.70;;;25.50;46.20;;;;;;5012809;28;20021;-70
2023/07/04 12:55:56;;;;;;;4.93;0.80;;;25.50;46.00;;;;;;5013327;28;20659;-77
2023/07/04 12:58:23;;;;;;;2.95;0.80;;;25.60;46.00;;;;;;5012774;28;20033;-77